createdAt,value
2018-06-15T00:02:17.475Z,99821.69
2018-06-15T00:04:45.091Z,99821.99
2018-06-15T00:07:12.758Z,99823.69
2018-06-15T00:09:40.345Z,99825.49
2018-06-15T00:12:08.075Z,99829.01
2018-06-15T00:14:35.751Z,99829.66
2018-06-15T00:17:03.495Z,99831.22
2018-06-15T00:19:31.144Z,99836.31
2018-06-15T00:21:58.782Z,99837.77
2018-06-15T00:24:26.543Z,99843.13
2018-06-15T00:26:54.267Z,99842.16
2018-06-15T00:29:21.922Z,99840.38
2018-06-15T00:31:49.579Z,99832.04
2018-06-15T00:34:17.458Z,99838.42
2018-06-15T00:36:45.124Z,99840.65
2018-06-15T00:39:13.597Z,99845.02
2018-06-15T00:41:42.398Z,99841.70
2018-06-15T00:44:10.231Z,99826.28
2018-06-15T00:46:37.925Z,99847.00
2018-06-15T00:49:06.102Z,99843.26
2018-06-15T00:51:33.721Z,99844.80
2018-06-15T00:54:02.140Z,99845.68
2018-06-15T00:56:30.289Z,99840.36
2018-06-15T00:58:57.963Z,99845.20
2018-06-15T01:01:25.553Z,99842.91
2018-06-15T01:03:54.491Z,99845.95
2018-06-15T01:06:22.541Z,99845.45
2018-06-15T01:08:50.547Z,99846.61
2018-06-15T01:11:18.385Z,99839.88
2018-06-15T01:13:46.039Z,99840.31
2018-06-15T01:16:13.943Z,99843.58
2018-06-15T01:18:41.604Z,99843.45
2018-06-15T01:21:09.270Z,99840.89
2018-06-15T01:23:37.003Z,99841.19
2018-06-15T01:26:04.778Z,99846.38
2018-06-15T01:28:33.455Z,99852.14
2018-06-15T01:31:01.094Z,99846.03
2018-06-15T01:33:28.788Z,99848.31
2018-06-15T01:35:56.370Z,99846.33
2018-06-15T01:38:24.029Z,99851.60
2018-06-15T01:40:51.648Z,99849.80
2018-06-15T01:43:19.294Z,99854.33
2018-06-15T01:45:46.908Z,99855.97
2018-06-15T01:48:14.578Z,99859.17
2018-06-15T01:50:42.218Z,99859.38
2018-06-15T01:53:09.912Z,99852.79
2018-06-15T01:55:38.056Z,99856.87
2018-06-15T01:58:05.726Z,99855.45
2018-06-15T02:00:33.328Z,99854.42
2018-06-15T02:03:00.958Z,99844.77
2018-06-15T02:05:28.658Z,99852.33
2018-06-15T02:07:56.298Z,99856.55
2018-06-15T02:10:23.913Z,99853.14
2018-06-15T02:12:51.658Z,99851.89
2018-06-15T02:15:19.278Z,99849.55
2018-06-15T02:17:47.001Z,99855.59
2018-06-15T02:20:14.645Z,99860.44
2018-06-15T02:22:42.429Z,99854.27
2018-06-15T02:25:10.131Z,99851.95
2018-06-15T02:27:37.797Z,99846.55
2018-06-15T02:30:05.548Z,99849.03
2018-06-15T02:32:33.249Z,99846.20
2018-06-15T02:35:00.885Z,99848.31
2018-06-15T02:37:28.601Z,99847.99
2018-06-15T02:39:56.539Z,99852.55
2018-06-15T02:42:24.203Z,99851.97
2018-06-15T02:44:51.921Z,99849.84
2018-06-15T02:47:19.529Z,99853.03
2018-06-15T02:49:47.158Z,99861.16
2018-06-15T02:52:14.794Z,99861.84
2018-06-15T02:54:42.507Z,99861.23
2018-06-15T02:57:10.114Z,99866.33
2018-06-15T02:59:38.710Z,99866.14
2018-06-15T03:02:06.414Z,99862.71
2018-06-15T03:04:34.562Z,99873.08
2018-06-15T03:07:02.246Z,99873.02
2018-06-15T03:09:29.873Z,99872.78
2018-06-15T03:11:57.514Z,99877.72
2018-06-15T03:14:25.147Z,99877.97
2018-06-15T03:16:52.874Z,99882.68
2018-06-15T03:19:20.479Z,99881.69
2018-06-15T03:21:48.185Z,99886.63
2018-06-15T03:24:15.835Z,99891.97
2018-06-15T03:26:44.241Z,99887.89
2018-06-15T03:29:11.977Z,99893.11
2018-06-15T03:31:39.961Z,99895.87
2018-06-15T03:34:07.803Z,99893.19
2018-06-15T03:36:35.391Z,99895.13
2018-06-15T03:39:04.943Z,99899.89
2018-06-15T03:41:32.609Z,99889.55
2018-06-15T03:44:00.212Z,99892.03
2018-06-15T03:46:27.902Z,99896.44
2018-06-15T03:48:55.590Z,99893.16
2018-06-15T03:51:23.134Z,99898.94
2018-06-15T03:53:50.796Z,99903.45
2018-06-15T03:56:18.470Z,99892.38
2018-06-15T03:58:46.104Z,99890.78
2018-06-15T04:01:13.771Z,99895.96
2018-06-15T04:03:41.350Z,99896.58
2018-06-15T04:06:08.955Z,99899.22
2018-06-15T04:08:36.579Z,99896.77
2018-06-15T04:11:04.194Z,99903.72
2018-06-15T04:13:31.885Z,99904.17
2018-06-15T04:15:59.578Z,99915.48
2018-06-15T04:18:27.212Z,99909.89
2018-06-15T04:20:54.952Z,99909.03
2018-06-15T04:23:22.572Z,99909.94
2018-06-15T04:25:50.193Z,99908.36
2018-06-15T04:28:17.813Z,99908.56
2018-06-15T04:30:45.451Z,99908.63
2018-06-15T04:33:13.148Z,99916.33
2018-06-15T04:35:40.841Z,99917.56
2018-06-15T04:38:08.485Z,99919.55
2018-06-15T04:40:36.139Z,99918.20
2018-06-15T04:43:03.856Z,99921.70
2018-06-15T04:45:31.541Z,99920.76
2018-06-15T04:47:59.177Z,99925.64
2018-06-15T04:50:26.829Z,99915.14
2018-06-15T04:52:54.435Z,99916.67
2018-06-15T04:55:22.851Z,99917.50
2018-06-15T04:57:50.763Z,99924.20
2018-06-15T05:00:18.397Z,99936.08
2018-06-15T05:02:46.052Z,99937.56
2018-06-15T05:05:13.726Z,99927.94
2018-06-15T05:07:41.361Z,99928.49
2018-06-15T05:10:09.014Z,99927.59
2018-06-15T05:12:36.703Z,99931.45
2018-06-15T05:15:04.434Z,99927.83
2018-06-15T05:17:32.114Z,99933.30
2018-06-15T05:19:59.888Z,99933.59
2018-06-15T05:22:27.558Z,99937.37
2018-06-15T05:24:55.208Z,99938.76
2018-06-15T05:27:22.970Z,99937.05
2018-06-15T05:29:50.681Z,99939.87
2018-06-15T05:32:18.590Z,99937.08
2018-06-15T05:34:46.287Z,99940.77
2018-06-15T05:37:13.986Z,99946.03
2018-06-15T05:39:41.646Z,99946.41
2018-06-15T05:42:09.411Z,99950.20
2018-06-15T05:44:37.053Z,99950.81
2018-06-15T05:47:04.757Z,99936.97
2018-06-15T05:49:32.392Z,99943.88
2018-06-15T05:52:00.924Z,99950.05
2018-06-15T05:54:28.682Z,99956.77
2018-06-15T05:56:56.344Z,99952.86
2018-06-15T05:59:24.006Z,99957.37
2018-06-15T06:01:52.200Z,99955.19
2018-06-15T06:04:19.876Z,99963.39
2018-06-15T06:06:48.048Z,99965.64
2018-06-15T06:09:15.778Z,99968.25
2018-06-15T06:11:43.422Z,99965.20
2018-06-15T06:14:11.084Z,99964.53
2018-06-15T06:16:38.709Z,99970.94
2018-06-15T06:19:06.344Z,99968.42
2018-06-15T06:21:34.012Z,99970.94
2018-06-15T06:24:01.698Z,99972.74
2018-06-15T06:26:29.310Z,99970.91
2018-06-15T06:28:57.004Z,99979.34
2018-06-15T06:31:24.671Z,99981.59
2018-06-15T06:33:53.053Z,99974.57
2018-06-15T06:36:20.731Z,99978.40
2018-06-15T06:38:48.427Z,99986.46
2018-06-15T06:41:16.057Z,99986.64
2018-06-15T06:43:43.803Z,99988.86
2018-06-15T06:46:11.458Z,99992.48
2018-06-15T06:48:39.111Z,99993.65
2018-06-15T06:51:06.784Z,99989.84
2018-06-15T06:53:34.426Z,99996.31
2018-06-15T06:56:02.107Z,99991.65
2018-06-15T06:58:29.853Z,99991.98
2018-06-15T07:00:57.459Z,99992.58
2018-06-15T07:03:25.077Z,99984.38
2018-06-15T07:05:52.687Z,99986.65
2018-06-15T07:08:20.451Z,99986.16
2018-06-15T07:10:48.114Z,99986.09
2018-06-15T07:13:16.031Z,99981.48
2018-06-15T07:15:43.647Z,99981.74
2018-06-15T07:18:11.295Z,99993.80
2018-06-15T07:20:39.009Z,99992.84
2018-06-15T07:23:07.178Z,99979.63
2018-06-15T07:25:35.534Z,99979.23
2018-06-15T07:28:03.257Z,99982.16
2018-06-15T07:30:30.926Z,99977.69
2018-06-15T07:32:58.580Z,99981.58
2018-06-15T07:35:26.496Z,99971.39
2018-06-15T07:37:54.204Z,99976.92
2018-06-15T07:40:21.812Z,99975.54
2018-06-15T07:42:49.397Z,99978.37
2018-06-15T07:45:16.937Z,99982.09
2018-06-15T07:47:44.562Z,99975.89
2018-06-15T07:50:12.169Z,99981.44
2018-06-15T07:52:39.865Z,99979.30
2018-06-15T07:55:07.521Z,99975.39
2018-06-15T07:57:35.184Z,99980.18
2018-06-15T08:00:02.943Z,99982.09
2018-06-15T08:02:30.580Z,99985.11
2018-06-15T08:04:58.180Z,99978.26
2018-06-15T08:07:25.863Z,99982.56
2018-06-15T08:09:53.842Z,99974.53
2018-06-15T08:12:21.490Z,99975.33
2018-06-15T08:14:49.190Z,99979.48
2018-06-15T08:17:17.230Z,99980.29
2018-06-15T08:19:44.863Z,99981.22
2018-06-15T08:22:12.534Z,99978.02
2018-06-15T08:24:40.216Z,99980.06
2018-06-15T08:27:07.882Z,99985.39
2018-06-15T08:29:35.472Z,99984.47
2018-06-15T08:32:03.154Z,99985.27
2018-06-15T08:34:30.759Z,99977.08
2018-06-15T08:36:58.358Z,99978.76
2018-06-15T08:39:26.085Z,99979.34
2018-06-15T08:41:54.199Z,99973.99
2018-06-15T08:44:21.823Z,99975.62
2018-06-15T08:46:49.452Z,99974.94
2018-06-15T08:49:17.102Z,99971.97
2018-06-15T08:51:44.738Z,99970.42
2018-06-15T08:54:12.342Z,99982.28
2018-06-15T08:56:39.971Z,99975.44
2018-06-15T08:59:07.657Z,99983.34
2018-06-15T09:01:35.311Z,99977.50
2018-06-15T09:04:02.970Z,99982.78
2018-06-15T09:06:30.534Z,99980.60
2018-06-15T09:08:58.199Z,99982.57
2018-06-15T09:11:25.852Z,99984.18
2018-06-15T09:13:53.521Z,99996.71
2018-06-15T09:16:21.164Z,99995.08
2018-06-15T09:18:48.858Z,99992.05
2018-06-15T09:21:16.542Z,99980.80
2018-06-15T09:23:44.206Z,99991.41
2018-06-15T09:26:11.806Z,99984.68
2018-06-15T09:28:39.418Z,99979.88
2018-06-15T09:31:07.071Z,99977.39
2018-06-15T09:33:34.878Z,99977.94
2018-06-15T09:36:02.544Z,99977.56
2018-06-15T09:38:30.252Z,99977.36
2018-06-15T09:40:57.969Z,99977.09
2018-06-15T09:43:25.621Z,99978.41
2018-06-15T09:45:53.370Z,99976.31
2018-06-15T09:48:21.210Z,99970.87
2018-06-15T09:50:48.922Z,99977.56
2018-06-15T09:53:16.654Z,99974.44
2018-06-15T09:55:44.427Z,99967.92
2018-06-15T09:58:12.186Z,99965.84
2018-06-15T10:00:45.637Z,99970.03
2018-06-15T10:03:13.545Z,99974.77
2018-06-15T10:05:41.442Z,99976.37
2018-06-15T10:08:09.199Z,99972.44
2018-06-15T10:10:36.992Z,99972.81
2018-06-15T10:13:04.937Z,99972.34
2018-06-15T10:15:32.964Z,99966.66
2018-06-15T10:18:00.942Z,99968.87
2018-06-15T10:20:28.631Z,99969.14
2018-06-15T10:22:56.505Z,99963.79
2018-06-15T10:25:24.366Z,99967.75
2018-06-15T10:27:52.537Z,99965.42
2018-06-15T10:30:20.579Z,99962.27
2018-06-15T10:32:48.215Z,99967.66
2018-06-15T10:35:15.825Z,99959.45
2018-06-15T10:37:43.527Z,99953.55
2018-06-15T10:40:11.429Z,99960.90
2018-06-15T10:42:39.277Z,99960.58
2018-06-15T10:45:06.957Z,99967.41
2018-06-15T10:47:34.945Z,99956.07
2018-06-15T10:50:03.172Z,99964.27
2018-06-15T10:52:31.177Z,99955.55
2018-06-15T10:54:59.035Z,99955.98
2018-06-15T10:57:26.661Z,99960.66
2018-06-15T10:59:54.897Z,99955.32
2018-06-15T11:02:22.610Z,99951.51
2018-06-15T11:04:50.323Z,99946.42
2018-06-15T11:07:17.956Z,99949.77
2018-06-15T11:09:45.558Z,99942.45
2018-06-15T11:12:13.354Z,99944.19
2018-06-15T11:14:41.014Z,99941.91
2018-06-15T11:17:08.630Z,99929.97
2018-06-15T11:19:36.298Z,99940.76
2018-06-15T11:22:04.035Z,99942.50
2018-06-15T11:24:31.649Z,99938.18
2018-06-15T11:26:59.271Z,99942.10
2018-06-15T11:29:27.641Z,99943.17
2018-06-15T11:31:55.281Z,99939.83
2018-06-15T11:34:22.937Z,99933.65
2018-06-15T11:36:50.539Z,99936.02
2018-06-15T11:39:18.211Z,99940.77
2018-06-15T11:41:45.823Z,99936.28
2018-06-15T11:44:13.518Z,99927.08
2018-06-15T11:46:41.172Z,99900.56
2018-06-15T11:49:08.857Z,99929.12
2018-06-15T11:51:36.519Z,99928.59
2018-06-15T11:54:04.327Z,99935.11
2018-06-15T11:56:32.082Z,99935.64
2018-06-15T11:59:00.214Z,99932.73
2018-06-15T12:01:27.927Z,99934.90
2018-06-15T12:03:55.653Z,99941.45
2018-06-15T12:06:23.338Z,99935.10
2018-06-15T12:08:51.326Z,99939.50
2018-06-15T12:11:18.996Z,99931.66
2018-06-15T12:13:46.606Z,99935.25
2018-06-15T12:16:14.678Z,99946.73
2018-06-15T12:18:42.340Z,99953.41
2018-06-15T12:21:10.168Z,99940.14
2018-06-15T12:23:37.978Z,99945.59
2018-06-15T12:26:05.738Z,99935.05
2018-06-15T12:28:33.625Z,99944.44
2018-06-15T12:31:01.470Z,99941.99
2018-06-15T12:33:29.194Z,99946.31
2018-06-15T12:35:56.924Z,99946.00
2018-06-15T12:38:24.553Z,99942.93
2018-06-15T12:40:52.533Z,99935.56
2018-06-15T12:43:20.221Z,99940.77
2018-06-15T12:45:48.064Z,99941.36
2018-06-15T12:48:15.715Z,99945.11
2018-06-15T12:50:43.385Z,99947.31
2018-06-15T12:53:11.047Z,99950.48
2018-06-15T12:55:38.725Z,99946.20
2018-06-15T12:58:06.404Z,99955.60
2018-06-15T13:00:34.184Z,99947.34
2018-06-15T13:03:01.853Z,99951.08
2018-06-15T13:05:29.570Z,99956.36
2018-06-15T13:07:57.273Z,99956.99
2018-06-15T13:10:25.226Z,99956.49
2018-06-15T13:12:52.900Z,99958.83
2018-06-15T13:15:20.516Z,99956.98
2018-06-15T13:17:48.220Z,99959.81
2018-06-15T13:20:15.978Z,99956.00
2018-06-15T13:22:44.602Z,99947.52
2018-06-15T13:25:12.309Z,99942.70
2018-06-15T13:27:40.162Z,99953.70
2018-06-15T13:30:07.938Z,99957.70
2018-06-15T13:32:35.635Z,99945.86
2018-06-15T13:35:03.352Z,99940.56
2018-06-15T13:37:31.016Z,99951.06
2018-06-15T13:39:58.719Z,99952.59
2018-06-15T13:42:26.463Z,99957.50
2018-06-15T13:44:54.164Z,99955.92
2018-06-15T13:47:21.879Z,99947.66
2018-06-15T13:49:49.559Z,99945.94
2018-06-15T13:52:17.220Z,99952.42
2018-06-15T13:54:45.287Z,99950.52
2018-06-15T13:57:12.995Z,99947.83
2018-06-15T13:59:40.648Z,99941.80
2018-06-15T14:02:08.390Z,99952.88
2018-06-15T14:04:36.015Z,99951.26
2018-06-15T14:07:04.000Z,99942.05
2018-06-15T14:09:32.359Z,99949.72
2018-06-15T14:12:00.097Z,99957.17
2018-06-15T14:14:27.818Z,99954.09
2018-06-15T14:16:55.566Z,99957.44
2018-06-15T14:19:23.292Z,99959.70
2018-06-15T14:21:51.290Z,99959.14
2018-06-15T14:24:18.966Z,99942.02
2018-06-15T14:26:46.752Z,99941.27
2018-06-15T14:29:14.351Z,99939.77
2018-06-15T14:31:42.606Z,99945.38
2018-06-15T14:34:10.397Z,99942.05
2018-06-15T14:36:38.150Z,99938.92
2018-06-15T14:39:08.372Z,99940.34
2018-06-15T14:41:36.017Z,99934.52
2018-06-15T14:44:03.708Z,99944.37
2018-06-15T14:46:31.502Z,99939.13
2018-06-15T14:48:59.202Z,99941.62
2018-06-15T14:51:26.894Z,99938.02
2018-06-15T14:53:54.503Z,99944.22
2018-06-15T14:56:22.280Z,99937.69
2018-06-15T14:58:50.014Z,99937.45
2018-06-15T15:01:17.798Z,99937.05
2018-06-15T15:03:45.599Z,99937.16
2018-06-15T15:06:13.469Z,99939.67
2018-06-15T15:08:41.209Z,99930.59
2018-06-15T15:11:09.485Z,99930.45
2018-06-15T15:13:37.193Z,99929.31
2018-06-15T15:16:04.985Z,99930.27
2018-06-15T15:18:32.695Z,99927.80
2018-06-15T15:21:00.359Z,99926.57
2018-06-15T15:23:28.007Z,99926.58
2018-06-15T15:25:55.790Z,99932.13
2018-06-15T15:28:23.504Z,99925.27
2018-06-15T15:30:51.302Z,99924.75
2018-06-15T15:33:19.032Z,99927.00
2018-06-15T15:35:47.992Z,99920.61
2018-06-15T15:38:15.715Z,99917.03
2018-06-15T15:40:43.628Z,99924.77
2018-06-15T15:43:11.302Z,99924.89
2018-06-15T15:45:38.918Z,99927.73
2018-06-15T15:48:06.646Z,99928.02
2018-06-15T15:50:34.447Z,99922.20
2018-06-15T15:53:09.441Z,99917.30
2018-06-15T15:55:38.378Z,99919.56
2018-06-15T15:58:07.324Z,99917.14
2018-06-15T16:00:35.062Z,99918.25
2018-06-15T16:03:03.094Z,99925.70
2018-06-15T16:05:30.808Z,99922.82
2018-06-15T16:07:58.450Z,99921.05
2018-06-15T16:10:26.090Z,99916.75
2018-06-15T16:12:53.719Z,99916.38
2018-06-15T16:15:21.353Z,99920.63
2018-06-15T16:17:48.940Z,99916.98
2018-06-15T16:20:16.666Z,99918.55
2018-06-15T16:22:44.238Z,99914.80
2018-06-15T16:25:11.852Z,99920.33
2018-06-15T16:27:39.472Z,99924.72
2018-06-15T16:30:07.170Z,99919.81
2018-06-15T16:32:34.858Z,99922.00
2018-06-15T16:35:02.501Z,99919.95
2018-06-15T16:37:30.102Z,99916.54
2018-06-15T16:39:57.753Z,99917.00
2018-06-15T16:42:25.475Z,99915.17
2018-06-15T16:44:53.189Z,99920.16
2018-06-15T16:47:20.966Z,99917.19
2018-06-15T16:49:48.669Z,99909.33
2018-06-15T16:52:16.289Z,99917.03
2018-06-15T16:54:43.967Z,99914.12
2018-06-15T16:57:11.889Z,99912.80
2018-06-15T16:59:39.491Z,99916.80
2018-06-15T17:02:07.156Z,99920.58
2018-06-15T17:04:34.877Z,99917.22
2018-06-15T17:07:02.610Z,99925.48
2018-06-15T17:09:30.379Z,99925.00
2018-06-15T17:11:58.011Z,99932.05
2018-06-15T17:14:25.742Z,99931.72
2018-06-15T17:16:53.387Z,99931.51
2018-06-15T17:19:21.123Z,99938.16
2018-06-15T17:21:48.765Z,99939.84
2018-06-15T17:24:16.446Z,99938.97
2018-06-15T17:26:44.328Z,99942.70
2018-06-15T17:29:12.563Z,99942.23
2018-06-15T17:31:40.738Z,99946.58
2018-06-15T17:34:08.718Z,99949.39
2018-06-15T17:36:41.315Z,99945.14
2018-06-15T17:39:08.981Z,99944.56
2018-06-15T17:41:36.691Z,99943.30
2018-06-15T17:44:04.484Z,99944.48
2018-06-15T17:46:32.168Z,99945.47
2018-06-15T17:48:59.878Z,99945.36
2018-06-15T17:51:27.560Z,99943.62
2018-06-15T17:53:55.250Z,99939.61
2018-06-15T17:56:22.916Z,99942.22
2018-06-15T17:58:51.021Z,99944.66
2018-06-15T18:01:18.651Z,99943.00
2018-06-15T18:03:46.264Z,99946.55
2018-06-15T18:06:13.857Z,99942.84
2018-06-15T18:08:41.530Z,99946.45
2018-06-15T18:11:09.118Z,99947.06
2018-06-15T18:13:37.412Z,99945.28
2018-06-15T18:16:05.095Z,99951.01
2018-06-15T18:18:32.806Z,99945.26
2018-06-15T18:21:00.402Z,99948.72
2018-06-15T18:23:28.064Z,99951.28
2018-06-15T18:25:55.637Z,99950.27
2018-06-15T18:28:23.382Z,99954.33
2018-06-15T18:30:51.035Z,99950.93
2018-06-15T18:33:18.710Z,99951.75
2018-06-15T18:35:46.543Z,99956.41
2018-06-15T18:38:14.157Z,99953.32
2018-06-15T18:40:41.796Z,99954.67
2018-06-15T18:43:09.422Z,99957.45
2018-06-15T18:45:37.045Z,99961.09
2018-06-15T18:48:04.858Z,99961.64
2018-06-15T18:50:32.850Z,99962.09
2018-06-15T18:53:00.548Z,99966.37
2018-06-15T18:55:28.228Z,99964.98
2018-06-15T18:57:55.918Z,99970.02
2018-06-15T19:00:23.645Z,99968.34
2018-06-15T19:02:51.330Z,99971.36
2018-06-15T19:05:19.572Z,99974.97
2018-06-15T19:07:47.250Z,99974.28
2018-06-15T19:10:14.951Z,99984.33
2018-06-15T19:12:42.720Z,99982.33
2018-06-15T19:15:10.374Z,99985.42
2018-06-15T19:17:38.005Z,99988.23
2018-06-15T19:20:05.701Z,99961.96
2018-06-15T19:22:33.533Z,99991.92
2018-06-15T19:25:01.247Z,99992.44
2018-06-15T19:27:28.896Z,99995.46
2018-06-15T19:29:56.575Z,99999.69
2018-06-15T19:32:24.285Z,99996.57
2018-06-15T19:34:51.993Z,99993.13
2018-06-15T19:37:19.581Z,99995.61
2018-06-15T19:39:47.265Z,100003.05
2018-06-15T19:42:14.890Z,100001.29
2018-06-15T19:44:42.839Z,99997.95
2018-06-15T19:47:10.673Z,99998.34
2018-06-15T19:49:38.406Z,100005.39
2018-06-15T19:52:06.114Z,100005.33
2018-06-15T19:54:33.820Z,100006.48
2018-06-15T19:57:02.103Z,99997.09
2018-06-15T19:59:29.758Z,99999.84
2018-06-15T20:01:57.392Z,100006.45
2018-06-15T20:04:25.190Z,100007.49
2018-06-15T20:06:53.592Z,100010.81
2018-06-15T20:09:21.351Z,100010.73
2018-06-15T20:11:49.057Z,100006.16
2018-06-15T20:14:16.837Z,100004.83
2018-06-15T20:16:44.535Z,100002.72
2018-06-15T20:19:12.257Z,100008.68
2018-06-15T20:21:39.913Z,100004.68
2018-06-15T20:24:07.573Z,100013.19
2018-06-15T20:26:35.282Z,100008.77
2018-06-15T20:29:03.042Z,100009.98
2018-06-15T20:31:30.883Z,100015.50
2018-06-15T20:33:58.606Z,100012.77
2018-06-15T20:36:26.604Z,100018.02
2018-06-15T20:38:54.291Z,100018.91
2018-06-15T20:41:21.998Z,100019.15
2018-06-15T20:43:49.665Z,100017.73
2018-06-15T20:46:17.333Z,100019.83
2018-06-15T20:48:45.014Z,100015.83
2018-06-15T20:51:12.920Z,100020.56
2018-06-15T20:56:14.900Z,100015.96
2018-06-15T20:58:42.556Z,100018.30
2018-06-15T21:01:10.339Z,100017.85
2018-06-15T21:03:37.911Z,100021.08
2018-06-15T21:06:05.640Z,100026.11
2018-06-15T21:08:34.307Z,100022.48
2018-06-15T21:11:02.123Z,100029.50
2018-06-15T21:13:29.833Z,100026.52
2018-06-15T21:15:57.515Z,100030.09
2018-06-15T21:18:25.203Z,100024.70
2018-06-15T21:20:52.966Z,100024.30
2018-06-15T21:23:20.734Z,100021.85
2018-06-15T21:25:48.367Z,100028.08
2018-06-15T21:28:16.030Z,100025.06
2018-06-15T21:30:43.707Z,100029.85
2018-06-15T21:33:11.420Z,100033.67
2018-06-15T21:35:39.702Z,100026.97
2018-06-15T21:38:07.394Z,100038.80
2018-06-15T21:40:35.018Z,100029.02
2018-06-15T21:43:02.713Z,100024.73
2018-06-15T21:45:30.409Z,100025.58
2018-06-15T21:47:58.091Z,100032.06
2018-06-15T21:50:25.775Z,100021.80
2018-06-15T21:52:53.493Z,100029.12
2018-06-15T21:55:21.193Z,100024.66
2018-06-15T21:57:48.887Z,100024.95
2018-06-15T22:00:16.647Z,100030.12
2018-06-15T22:02:44.279Z,100026.95
2018-06-15T22:05:12.107Z,100030.41
2018-06-15T22:07:39.801Z,100028.78
2018-06-15T22:10:07.463Z,100028.45
2018-06-15T22:12:36.167Z,100032.38
2018-06-15T22:15:03.829Z,100030.37
2018-06-15T22:17:31.577Z,100032.20
2018-06-15T22:19:59.224Z,100032.83
2018-06-15T22:22:26.831Z,100030.37
2018-06-15T22:24:55.036Z,100021.55
2018-06-15T22:27:22.681Z,100027.41
2018-06-15T22:29:50.342Z,100026.75
2018-06-15T22:32:17.992Z,100020.09
2018-06-15T22:34:45.648Z,100022.42
2018-06-15T22:37:13.266Z,100022.09
2018-06-15T22:39:40.927Z,100023.09
2018-06-15T22:42:08.627Z,100022.63
2018-06-15T22:44:36.277Z,100020.64
2018-06-15T22:47:04.119Z,100021.19
2018-06-15T22:49:31.745Z,100018.86
2018-06-15T22:51:59.397Z,100022.98
2018-06-15T22:54:27.069Z,100028.09
2018-06-15T22:56:54.685Z,100026.47
2018-06-15T22:59:22.283Z,100025.67
2018-06-15T23:01:49.916Z,100025.31
2018-06-15T23:04:17.591Z,100027.05
2018-06-15T23:06:45.199Z,100029.25
2018-06-15T23:09:12.875Z,100026.59
2018-06-15T23:11:41.066Z,100023.92
2018-06-15T23:14:08.733Z,100020.59
2018-06-15T23:16:36.383Z,100020.63
2018-06-15T23:19:03.999Z,100023.48
2018-06-15T23:21:31.682Z,100020.03
2018-06-15T23:24:00.025Z,100022.69
2018-06-15T23:26:27.662Z,100018.66
2018-06-15T23:28:55.267Z,100016.17
2018-06-15T23:31:22.873Z,100014.80
2018-06-15T23:33:50.562Z,100012.64
2018-06-15T23:36:18.182Z,100016.27
2018-06-15T23:38:45.796Z,100017.17
2018-06-15T23:41:13.450Z,100011.52
2018-06-15T23:43:41.038Z,100015.93
2018-06-15T23:46:08.642Z,100011.74
2018-06-15T23:48:36.279Z,100020.28
2018-06-15T23:51:04.571Z,100024.11
2018-06-15T23:53:32.181Z,100022.95
2018-06-15T23:55:59.780Z,100021.45
2018-06-15T23:58:27.701Z,100017.76
